Time;durP1;ratioP1;P1;durP2;ratioP2;P2;SDS_P1;SDS_P2;PMS_P1;PMS_P2;Temp;Humidity;BMP_temperature;BMP_pressure;BME280_temperature;BME280_humidity;BME280_pressure;Samples;Min_cycle;Max_cycle;Signal;HPM_P1;HPM_P2
2021/11/03 00:03:04;;;;;;;26.20;16.60;;;;;;;6.12;88.73;100046.44;10257710;28;20103;-70
2021/11/03 00:08:01;;;;;;;27.95;17.23;;;;;;;6.09;88.27;100042.41;10257219;28;20049;-71
2021/11/03 00:12:58;;;;;;;21.40;16.95;;;;;;;6.06;88.62;100037.63;10261046;28;20071;-71
2021/11/03 00:17:54;;;;;;;23.58;17.40;;;;;;;6.05;88.86;100040.63;10266691;28;20084;-70
2021/11/03 00:22:51;;;;;;;24.27;17.33;;;;;;;6.01;89.26;100035.00;10264842;28;20152;-71
2021/11/03 00:27:47;;;;;;;24.52;16.77;;;;;;;5.99;89.26;100041.84;10261384;28;20037;-71
2021/11/03 00:32:48;;;;;;;22.90;16.75;;;;;;;5.99;89.25;100045.38;10258128;28;20396;-71
2021/11/03 00:37:45;;;;;;;23.38;16.10;;;;;;;6.00;89.48;100035.31;10262436;28;20074;-71
2021/11/03 00:42:41;;;;;;;24.30;16.38;;;;;;;6.00;89.59;100044.25;10257545;28;20073;-70
2021/11/03 00:47:38;;;;;;;21.42;16.30;;;;;;;6.03;89.88;100043.63;10264555;28;20477;-70
2021/11/03 00:52:34;;;;;;;24.52;17.38;;;;;;;6.04;89.75;100039.81;10271370;28;20049;-71
2021/11/03 00:57:31;;;;;;;25.13;16.42;;;;;;;6.05;89.88;100041.41;10254536;28;20168;-71
2021/11/03 01:02:29;;;;;;;23.92;16.73;;;;;;;6.05;90.21;100036.00;10255401;28;20080;-70
2021/11/03 01:07:26;;;;;;;23.52;15.77;;;;;;;6.09;90.63;100037.00;10255997;28;20045;-71
2021/11/03 01:12:22;;;;;;;25.52;16.95;;;;;;;6.16;90.72;100035.78;10254075;28;20080;-70
2021/11/03 01:17:20;;;;;;;26.83;15.70;;;;;;;6.19;91.15;100024.31;10261282;28;20076;-71
2021/11/03 01:22:16;;;;;;;23.77;16.52;;;;;;;6.22;91.17;100023.69;10262378;28;20049;-71
2021/11/03 01:27:13;;;;;;;25.55;17.15;;;;;;;6.19;91.06;100035.16;10249016;28;20110;-71
2021/11/03 01:32:09;;;;;;;24.40;16.02;;;;;;;6.16;90.95;100030.34;10260985;28;20103;-70
2021/11/03 01:37:06;;;;;;;23.80;15.75;;;;;;;6.17;90.88;100026.53;10265673;28;20052;-71
2021/11/03 01:42:02;;;;;;;22.58;14.93;;;;;;;6.21;91.11;100027.53;10273507;28;20082;-70
2021/11/03 01:47:38;;;;;;;22.13;15.63;;;;;;;6.34;91.56;100026.69;10259543;28;20098;-71
2021/11/03 01:52:34;;;;;;;23.65;15.90;;;;;;;6.43;91.87;100018.59;10262329;28;20073;-71
2021/11/03 01:57:34;;;;;;;25.45;16.42;;;;;;;6.51;92.13;100021.41;10248020;28;20743;-70
2021/11/03 02:02:33;;;;;;;23.33;16.55;;;;;;;6.56;92.48;100012.31;10251998;28;20053;-71
2021/11/03 02:07:31;;;;;;;22.90;16.15;;;;;;;6.62;92.99;100015.75;10257813;28;20049;-71
2021/11/03 02:12:29;;;;;;;20.58;15.07;;;;;;;6.66;93.07;100022.13;10254043;28;20045;-71
2021/11/03 02:17:26;;;;;;;20.17;14.82;;;;;;;6.63;93.77;100022.75;10265617;28;20037;-71
2021/11/03 02:22:40;;;;;;;23.05;15.65;;;;;;;6.65;93.26;100025.97;10260214;28;20470;-71
2021/11/03 02:27:45;;;;;;;19.67;15.30;;;;;;;6.62;93.38;100026.59;10266234;28;20072;-71
2021/11/03 02:32:43;;;;;;;23.35;15.70;;;;;;;6.60;93.45;100017.97;10255601;28;20071;-71
2021/11/03 02:37:45;;;;;;;21.02;15.13;;;;;;;6.65;93.68;100020.53;10271971;28;20041;-71
2021/11/03 02:42:46;;;;;;;21.40;15.20;;;;;;;6.72;94.10;100023.63;10253342;28;20077;-71
2021/11/03 02:47:43;;;;;;;21.65;15.02;;;;;;;6.75;94.05;100020.28;10263064;28;20040;-71
2021/11/03 02:52:39;;;;;;;20.90;15.15;;;;;;;6.78;94.35;100008.81;10259444;28;20044;-71
2021/11/03 02:57:37;;;;;;;21.42;14.98;;;;;;;6.81;94.60;100008.19;10247487;28;20079;-71
2021/11/03 03:02:33;;;;;;;22.33;15.40;;;;;;;6.82;94.76;100026.09;10274845;28;20067;-71
2021/11/03 03:07:30;;;;;;;24.88;15.23;;;;;;;6.87;94.94;100017.00;10260271;28;20490;-70
2021/11/03 03:12:29;;;;;;;19.42;14.52;;;;;;;6.94;95.20;100018.19;10262523;28;20449;-71
2021/11/03 03:17:26;;;;;;;20.02;14.60;;;;;;;6.99;94.36;100013.75;10276640;28;20048;-70
2021/11/03 03:22:23;;;;;;;17.88;14.27;;;;;;;7.02;94.46;100024.00;10271264;28;20163;-71
2021/11/03 03:27:19;;;;;;;20.55;13.88;;;;;;;7.03;93.87;100020.97;10260114;28;20136;-71
2021/11/03 03:32:17;;;;;;;18.65;12.70;;;;;;;7.04;93.49;100024.50;10276374;28;20466;-71
2021/11/03 03:37:13;;;;;;;18.50;12.68;;;;;;;7.07;93.29;100026.56;10249540;28;20159;-71
2021/11/03 03:42:14;;;;;;;19.55;12.25;;;;;;;7.07;92.61;100032.81;10270790;28;20048;-71
2021/11/03 03:47:11;;;;;;;21.13;13.20;;;;;;;7.07;93.11;100032.00;10258563;28;20077;-70
2021/11/03 03:52:08;;;;;;;18.65;13.18;;;;;;;7.06;92.64;100030.41;10251948;28;20076;-71
2021/11/03 03:57:05;;;;;;;14.68;11.02;;;;;;;7.03;92.43;100033.75;10261831;28;20044;-71
2021/11/03 04:02:02;;;;;;;21.50;12.18;;;;;;;6.92;92.25;100036.72;10257699;28;20068;-71
2021/11/03 04:06:59;;;;;;;18.77;12.85;;;;;;;6.83;92.00;100032.34;10259720;28;20094;-71
2021/11/03 04:11:56;;;;;;;15.88;11.05;;;;;;;6.74;92.16;100040.44;10248762;28;20044;-70
2021/11/03 04:16:52;;;;;;;20.02;11.60;;;;;;;6.71;92.22;100051.94;10264298;28;20144;-70
2021/11/03 04:21:48;;;;;;;17.77;11.38;;;;;;;6.76;92.13;100051.78;10258760;28;20041;-71
2021/11/03 04:26:49;;;;;;;18.63;11.93;;;;;;;6.75;92.57;100058.31;10269289;28;20045;-71
2021/11/03 04:31:46;;;;;;;17.67;12.18;;;;;;;6.66;92.39;100066.44;10264572;28;20064;-70
2021/11/03 04:36:45;;;;;;;19.17;12.43;;;;;;;6.65;92.52;100067.53;10279002;28;20099;-71
2021/11/03 04:41:41;;;;;;;16.42;11.82;;;;;;;6.65;92.50;100066.72;10271909;28;20084;-71
2021/11/03 04:46:38;;;;;;;20.45;11.75;;;;;;;6.67;92.16;100072.66;10251025;28;20061;-71
2021/11/03 04:51:35;;;;;;;18.95;12.38;;;;;;;6.77;92.03;100077.84;10263805;28;20100;-72
2021/11/03 04:56:32;;;;;;;17.92;12.15;;;;;;;6.82;92.25;100074.19;10253920;28;20101;-71
2021/11/03 05:01:29;;;;;;;20.30;12.63;;;;;;;6.84;92.10;100078.22;10253057;28;20100;-72
2021/11/03 05:06:28;;;;;;;19.40;11.80;;;;;;;6.87;92.35;100072.19;10260927;28;20135;-71
2021/11/03 05:11:25;;;;;;;15.90;10.05;;;;;;;6.87;91.83;100083.06;10249142;28;20433;-69
2021/11/03 05:16:24;;;;;;;19.17;10.98;;;;;;;6.88;92.04;100068.34;10260944;28;20052;-70
2021/11/03 05:21:20;;;;;;;19.70;12.32;;;;;;;6.84;92.46;100082.84;10252721;28;20092;-69
2021/11/03 05:26:20;;;;;;;19.30;12.23;;;;;;;6.86;92.90;100076.00;10268191;28;20110;-69
2021/11/03 05:31:17;;;;;;;19.55;11.98;;;;;;;6.86;92.98;100070.56;10270067;28;20084;-70
2021/11/03 05:36:19;;;;;;;14.85;11.13;;;;;;;6.80;92.70;100066.38;10269416;28;20080;-69
2021/11/03 05:41:17;;;;;;;19.30;12.50;;;;;;;6.70;92.71;100069.31;10257553;28;20053;-69
2021/11/03 05:46:16;;;;;;;18.13;12.05;;;;;;;6.65;92.24;100069.44;10263024;28;20507;-68
2021/11/03 05:51:13;;;;;;;15.38;11.23;;;;;;;6.63;92.53;100069.75;10261009;28;20041;-71
2021/11/03 05:56:10;;;;;;;18.15;11.02;;;;;;;6.56;91.98;100082.16;10258930;28;20098;-71
2021/11/03 06:01:07;;;;;;;17.77;12.00;;;;;;;6.47;91.83;100082.84;10254904;28;20049;-71
2021/11/03 06:06:04;;;;;;;21.20;11.70;;;;;;;6.41;91.98;100075.94;10257538;28;20132;-71
2021/11/03 06:11:02;;;;;;;18.73;12.73;;;;;;;6.38;91.93;100081.97;10251474;28;20498;-71
2021/11/03 06:15:59;;;;;;;22.67;11.88;;;;;;;6.40;92.50;100095.25;10260513;28;20060;-71
2021/11/03 06:20:56;;;;;;;18.60;12.35;;;;;;;6.47;92.31;100106.50;10264081;28;20652;-71
2021/11/03 06:25:52;;;;;;;21.70;13.70;;;;;;;6.50;93.42;100112.13;10273482;28;20136;-71
2021/11/03 06:30:49;;;;;;;25.42;14.65;;;;;;;6.50;93.16;100112.13;10269487;28;20086;-71
2021/11/03 06:35:48;;;;;;;21.05;13.15;;;;;;;6.44;92.79;100129.66;10270320;28;20075;-71
2021/11/03 06:40:45;;;;;;;22.63;14.27;;;;;;;6.41;92.33;100134.91;10260938;28;20075;-72
2021/11/03 06:45:43;;;;;;;23.70;14.13;;;;;;;6.35;92.54;100136.91;10270302;28;20107;-71
2021/11/03 06:50:40;;;;;;;24.05;13.15;;;;;;;6.31;92.51;100146.75;10275816;28;20041;-71
2021/11/03 06:55:38;;;;;;;22.45;14.23;;;;;;;6.28;92.26;100147.38;10278757;28;20073;-71
2021/11/03 07:00:39;;;;;;;24.63;13.48;;;;;;;6.22;92.36;100143.13;10265694;28;20076;-71
2021/11/03 07:05:46;;;;;;;25.83;15.05;;;;;;;6.21;92.30;100146.97;10265581;28;20128;-71
2021/11/03 07:10:47;;;;;;;23.27;15.00;;;;;;;6.24;92.80;100140.94;10254475;28;20632;-71
2021/11/03 07:15:43;;;;;;;23.33;14.63;;;;;;;6.21;92.51;100141.53;10266157;28;20048;-71
2021/11/03 07:20:42;;;;;;;25.45;15.00;;;;;;;6.22;92.66;100154.81;10257400;28;20103;-72
2021/11/03 07:25:40;;;;;;;23.13;15.68;;;;;;;6.25;92.96;100147.97;10252968;28;20088;-72
2021/11/03 07:30:38;;;;;;;23.90;15.90;;;;;;;6.28;92.63;100166.38;10277212;28;20670;-72
2021/11/03 07:35:36;;;;;;;28.35;17.40;;;;;;;6.28;92.79;100174.50;10270682;28;20057;-71
2021/11/03 07:40:38;;;;;;;28.15;16.48;;;;;;;6.33;92.95;100182.56;10256317;28;20049;-71
2021/11/03 07:45:36;;;;;;;29.05;17.25;;;;;;;6.33;93.01;100182.56;10257395;28;20045;-71
2021/11/03 07:50:37;;;;;;;30.08;17.52;;;;;;;6.36;93.28;100173.81;10252239;28;20553;-71
2021/11/03 07:55:34;;;;;;;29.40;17.40;;;;;;;6.36;93.09;100176.53;10266385;28;20049;-71
2021/11/03 08:00:37;;;;;;;28.63;18.63;;;;;;;6.43;93.22;100182.38;10269891;28;20094;-72
2021/11/03 08:05:34;;;;;;;38.20;18.80;;;;;;;6.45;93.44;100174.72;10266874;28;20079;-72
2021/11/03 08:10:31;;;;;;;30.42;18.75;;;;;;;6.57;93.63;100192.38;10260957;28;20491;-72
2021/11/03 08:15:27;;;;;;;35.50;19.10;;;;;;;6.65;93.19;100188.97;10261496;28;20490;-72
2021/11/03 08:20:26;;;;;;;32.85;17.45;;;;;;;6.72;93.03;100192.06;10272730;28;20042;-71
2021/11/03 08:25:24;;;;;;;34.53;20.85;;;;;;;6.78;92.73;100200.91;10260573;28;20560;-71
2021/11/03 08:30:21;;;;;;;32.35;18.48;;;;;;;6.73;92.32;100201.84;10254629;28;20475;-72
2021/11/03 08:35:21;;;;;;;36.47;19.80;;;;;;;6.75;92.50;100199.59;10267825;28;20110;-72
2021/11/03 08:40:21;;;;;;;41.40;21.42;;;;;;;6.78;91.58;100204.47;10262465;28;20491;-72
2021/11/03 08:45:18;;;;;;;42.75;24.30;;;;;;;6.75;91.00;100221.34;10264659;28;20044;-72
2021/11/03 08:50:20;;;;;;;47.88;24.98;;;;;;;6.87;90.93;100229.81;10255694;28;20422;-72
2021/11/03 08:55:16;;;;;;;49.60;26.08;;;;;;;6.90;90.57;100228.38;10262223;28;20110;-71
2021/11/03 09:00:23;;;;;;;48.67;25.67;;;;;;;6.94;90.60;100234.81;10263205;28;20513;-72
2021/11/03 09:05:22;;;;;;;53.97;26.90;;;;;;;6.95;91.12;100226.34;10256723;28;20115;-72
2021/11/03 09:10:22;;;;;;;60.20;30.92;;;;;;;6.95;91.24;100230.97;10256287;28;20701;-71
2021/11/03 09:15:19;;;;;;;61.45;30.77;;;;;;;7.10;91.13;100216.25;10259137;28;20053;-71
2021/11/03 09:20:23;;;;;;;56.47;29.50;;;;;;;7.23;91.04;100220.84;10262648;28;20438;-72
2021/11/03 09:25:22;;;;;;;53.60;28.95;;;;;;;7.29;90.50;100208.75;10267963;28;20106;-71
2021/11/03 09:30:21;;;;;;;51.47;29.08;;;;;;;7.42;90.46;100217.16;10265512;28;20144;-71
2021/11/03 09:35:18;;;;;;;48.80;27.10;;;;;;;7.50;90.13;100213.69;10259202;28;20057;-71
2021/11/03 09:40:29;;;;;;;48.13;27.30;;;;;;;7.59;89.43;100199.03;10253959;28;20498;-71
2021/11/03 09:45:32;;;;;;;47.60;27.77;;;;;;;7.52;89.02;100206.00;10246678;28;20041;-71
2021/11/03 09:50:37;;;;;;;45.83;26.70;;;;;;;7.49;88.41;100207.44;10262403;28;20433;-71
2021/11/03 09:55:34;;;;;;;48.00;28.60;;;;;;;7.61;88.75;100206.06;10265519;28;20040;-71
2021/11/03 10:00:45;;;;;;;46.35;27.58;;;;;;;7.63;88.46;100212.81;10250450;28;20084;-71
2021/11/03 10:06:06;;;;;;;45.05;26.45;;;;;;;7.68;88.31;100209.97;10255852;28;20647;-71
2021/11/03 10:11:16;;;;;;;38.55;24.33;;;;;;;7.76;87.93;100206.50;10258865;28;20041;-71
2021/11/03 10:16:13;;;;;;;38.25;23.25;;;;;;;7.82;87.40;100209.06;10255298;28;20102;-71
2021/11/03 10:21:20;;;;;;;40.47;25.40;;;;;;;7.85;87.31;100214.72;10259583;28;20087;-71
2021/11/03 10:26:17;;;;;;;38.95;23.35;;;;;;;7.77;86.82;100201.84;10260096;28;20387;-71
2021/11/03 10:31:19;;;;;;;40.72;23.98;;;;;;;7.86;87.50;100210.88;10256834;28;20084;-71
2021/11/03 10:36:21;;;;;;;41.85;25.40;;;;;;;7.91;87.78;100209.94;10253553;28;20072;-71
2021/11/03 10:41:23;;;;;;;40.03;24.83;;;;;;;8.00;87.02;100205.34;10266797;28;20099;-71
2021/11/03 10:46:23;;;;;;;;;;;;;;;8.10;86.78;100209.69;10257702;28;20037;-71
2021/11/03 10:51:30;;;;;;;36.80;22.75;;;;;;;8.13;85.63;100220.78;10251464;28;19956;-71
2021/11/03 10:56:34;;;;;;;36.35;22.83;;;;;;;8.16;85.24;100217.41;10265806;28;20479;-71
2021/11/03 11:01:32;;;;;;;35.53;21.17;;;;;;;8.39;85.22;100220.88;10267560;28;20128;-71
2021/11/03 11:06:37;;;;;;;32.20;21.30;;;;;;;8.53;84.52;100218.06;10258722;28;20056;-71
2021/11/03 11:11:35;;;;;;;35.40;22.23;;;;;;;8.55;84.06;100220.50;10262996;28;20080;-71
2021/11/03 11:17:03;;;;;;;31.52;20.55;;;;;;;8.72;84.64;100219.72;10260925;28;20119;-72
2021/11/03 11:22:06;;;;;;;29.42;20.48;;;;;;;8.67;82.95;100212.50;10262859;28;20048;-71
2021/11/03 11:27:17;;;;;;;31.40;19.67;;;;;;;8.87;82.59;100205.66;10262985;28;20032;-71
2021/11/03 11:32:39;;;;;;;26.33;17.52;;;;;;;8.94;82.53;100195.06;10260980;28;20502;-71
2021/11/03 11:37:52;;;;;;;25.17;17.42;;;;;;;8.97;81.79;100197.16;10254142;28;20057;-72
2021/11/03 11:42:55;;;;;;;27.63;17.00;;;;;;;8.93;81.70;100187.19;10257120;28;20057;-72
2021/11/03 11:47:56;;;;;;;28.50;17.00;;;;;;;8.99;81.59;100196.84;10259757;28;20041;-71
2021/11/03 11:52:55;;;;;;;28.02;17.83;;;;;;;9.01;81.15;100186.41;10266793;28;20531;-71
2021/11/03 11:58:07;;;;;;;27.90;15.43;;;;;;;8.99;80.76;100188.66;10265409;28;20040;-71
2021/11/03 12:03:06;;;;;;;24.83;16.45;;;;;;;8.95;80.91;100180.31;10263366;28;20045;-71
2021/11/03 12:08:09;;;;;;;23.50;15.70;;;;;;;8.89;82.10;100187.06;10277578;28;20036;-72
2021/11/03 12:13:08;;;;;;;27.45;17.42;;;;;;;8.89;81.37;100181.59;10266652;28;20102;-72
2021/11/03 12:18:15;;;;;;;27.75;16.20;;;;;;;8.88;80.69;100182.72;10257549;28;20095;-71
2021/11/03 12:23:51;;;;;;;21.70;13.52;;;;;;;8.98;80.41;100187.03;10260680;28;20460;-71
2021/11/03 12:29:23;;;;;;;21.45;14.45;;;;;;;9.09;79.74;100193.00;10256559;28;20151;-72
2021/11/03 12:34:36;;;;;;;26.77;16.98;;;;;;;9.09;78.52;100182.88;10252567;28;20053;-72
2021/11/03 12:39:41;;;;;;;24.85;16.58;;;;;;;9.17;79.62;100182.09;10256051;28;20076;-71
2021/11/03 12:44:42;;;;;;;26.27;17.05;;;;;;;9.29;78.25;100188.84;10264012;28;20072;-71
2021/11/03 12:49:38;;;;;;;26.98;17.40;;;;;;;9.47;79.35;100180.31;10261223;28;20087;-72
2021/11/03 12:54:35;;;;;;;21.58;13.75;;;;;;;9.63;77.80;100179.78;10263309;28;20126;-72
2021/11/03 12:59:37;;;;;;;21.90;15.18;;;;;;;9.62;76.14;100173.53;10263064;28;20071;-71
2021/11/03 13:04:43;;;;;;;21.40;14.50;;;;;;;9.60;76.64;100177.69;10254103;28;20569;-72
2021/11/03 13:09:44;;;;;;;22.58;14.48;;;;;;;9.53;76.86;100171.94;10252612;28;20048;-71
2021/11/03 13:14:40;;;;;;;19.63;12.73;;;;;;;9.48;75.68;100175.63;10254748;28;20041;-72
2021/11/03 13:19:42;;;;;;;21.40;14.70;;;;;;;9.42;76.45;100166.84;10255403;28;20750;-71
2021/11/03 13:24:39;;;;;;;21.02;14.60;;;;;;;9.44;76.46;100167.28;10258747;28;20045;-71
2021/11/03 13:29:39;;;;;;;20.83;13.35;;;;;;;9.49;76.71;100171.78;10254474;28;20037;-72
2021/11/03 13:34:43;;;;;;;26.58;14.60;;;;;;;9.54;76.92;100181.72;10252546;28;20044;-71
2021/11/03 13:39:55;;;;;;;25.38;14.07;;;;;;;9.58;76.90;100174.50;10256708;28;20076;-73
2021/11/03 13:45:19;;;;;;;23.30;14.40;;;;;;;9.63;77.31;100166.94;10259071;28;20037;-72
2021/11/03 13:50:28;;;;;;;25.52;15.63;;;;;;;9.64;77.02;100184.13;10241459;28;20486;-72
2021/11/03 13:55:32;;;;;;;19.60;12.25;;;;;;;9.68;75.90;100179.63;10251589;28;20044;-72
2021/11/03 14:00:31;;;;;;;20.67;13.73;;;;;;;9.72;75.98;100186.03;10258824;28;20041;-72
2021/11/03 14:05:40;;;;;;;22.15;13.45;;;;;;;9.69;75.84;100186.69;10262117;28;20124;-72
2021/11/03 14:10:36;;;;;;;26.05;16.23;;;;;;;9.72;76.19;100186.03;10246804;28;20469;-72
2021/11/03 14:15:32;;;;;;;22.38;14.07;;;;;;;9.73;75.74;100182.19;10246854;28;20061;-72
2021/11/03 14:20:35;;;;;;;25.05;14.45;;;;;;;9.75;76.57;100179.94;10257208;28;20042;-72
2021/11/03 14:25:35;;;;;;;20.63;13.07;;;;;;;9.69;75.80;100175.75;10260951;28;20065;-72
2021/11/03 14:31:00;;;;;;;23.75;12.65;;;;;;;9.65;76.47;100172.06;10266268;28;20074;-72
2021/11/03 14:36:00;;;;;;;21.88;12.93;;;;;;;9.53;77.50;100171.94;10267204;28;20661;-72
2021/11/03 14:40:57;;;;;;;18.48;13.15;;;;;;;9.41;76.20;100181.59;10260837;28;20068;-72
2021/11/03 14:45:54;;;;;;;25.50;14.95;;;;;;;9.33;76.84;100179.69;10264822;28;20057;-72
2021/11/03 14:50:52;;;;;;;19.67;12.98;;;;;;;9.19;77.79;100179.84;10260395;28;20049;-72
2021/11/03 14:56:10;;;;;;;22.92;13.98;;;;;;;9.05;78.90;100196.38;10261813;28;20045;-72
2021/11/03 15:01:33;;;;;;;25.33;15.75;;;;;;;8.93;80.18;100190.72;10255333;28;20045;-72
2021/11/03 15:06:30;;;;;;;23.42;14.07;;;;;;;8.85;81.00;100191.53;10258518;28;20049;-72
2021/11/03 15:11:29;;;;;;;23.83;14.50;;;;;;;8.76;81.94;100193.44;10255356;28;20473;-72
2021/11/03 15:16:33;;;;;;;24.98;16.05;;;;;;;8.72;81.40;100209.63;10262289;28;20071;-72
2021/11/03 15:21:30;;;;;;;27.85;16.27;;;;;;;8.68;82.51;100207.84;10261898;28;20197;-72
2021/11/03 15:26:26;;;;;;;25.13;16.65;;;;;;;8.66;82.48;100215.53;10266130;28;20089;-72
2021/11/03 15:31:27;;;;;;;27.02;16.73;;;;;;;8.59;82.98;100219.53;10266202;28;20121;-72
2021/11/03 15:36:24;;;;;;;27.90;17.33;;;;;;;8.59;82.99;100216.81;10280571;28;20446;-72
2021/11/03 15:41:23;;;;;;;28.88;17.13;;;;;;;8.54;83.21;100214.25;10262370;28;20102;-72
2021/11/03 15:46:29;;;;;;;29.00;17.00;;;;;;;8.46;83.31;100212.28;10271188;28;20099;-73
2021/11/03 15:51:25;;;;;;;28.25;17.77;;;;;;;8.46;83.58;100206.84;10271801;28;20049;-73
2021/11/03 15:56:22;;;;;;;30.20;17.75;;;;;;;8.43;84.46;100212.94;10249380;28;20033;-73
2021/11/03 16:01:24;;;;;;;30.55;17.73;;;;;;;8.41;84.93;100220.59;10265160;28;20076;-73
2021/11/03 16:06:22;;;;;;;27.60;17.00;;;;;;;8.40;84.63;100213.53;10270679;28;20052;-70
2021/11/03 16:11:19;;;;;;;28.63;18.77;;;;;;;8.39;84.66;100220.09;10256269;28;20045;-70
2021/11/03 16:16:16;;;;;;;27.38;18.17;;;;;;;8.39;85.06;100214.63;10263616;28;20625;-70
2021/11/03 16:21:23;;;;;;;29.00;17.77;;;;;;;8.35;85.08;100217.16;10261358;28;20049;-70
2021/11/03 16:26:20;;;;;;;30.95;19.80;;;;;;;8.31;85.75;100212.66;10253331;28;20071;-73
2021/11/03 16:31:16;;;;;;;30.00;18.55;;;;;;;8.29;85.98;100217.66;10258149;28;20045;-73
2021/11/03 16:36:16;;;;;;;32.40;20.67;;;;;;;8.25;85.96;100216.66;10255912;28;20094;-73
2021/11/03 16:41:30;;;;;;;30.10;18.23;;;;;;;8.24;86.62;100221.31;10242591;28;20063;-73
2021/11/03 16:46:27;;;;;;;31.75;19.13;;;;;;;8.23;86.71;100227.88;10265743;28;20073;-72
2021/11/03 16:51:23;;;;;;;31.65;19.83;;;;;;;8.24;87.02;100226.75;10257461;28;20048;-72
2021/11/03 16:56:25;;;;;;;32.63;20.45;;;;;;;8.23;86.51;100220.50;10258155;28;20095;-72
2021/11/03 17:01:26;;;;;;;31.67;18.65;;;;;;;8.22;86.83;100218.91;10255360;28;20102;-72
2021/11/03 17:06:32;;;;;;;30.23;18.95;;;;;;;8.21;87.20;100228.19;10261680;28;20473;-72
2021/11/03 17:11:33;;;;;;;30.27;18.65;;;;;;;8.19;87.65;100227.72;10262306;28;20569;-72
2021/11/03 17:16:30;;;;;;;33.13;20.17;;;;;;;8.17;87.41;100224.50;10258214;28;20041;-72
2021/11/03 17:21:27;;;;;;;32.53;20.13;;;;;;;8.16;87.51;100222.88;10261782;28;20041;-72
2021/11/03 17:26:32;;;;;;;32.05;19.30;;;;;;;8.15;87.55;100221.28;10251225;28;20169;-73
2021/11/03 17:31:29;;;;;;;38.75;19.85;;;;;;;8.12;87.85;100235.53;10262617;28;20041;-73
2021/11/03 17:36:25;;;;;;;35.17;20.83;;;;;;;8.10;88.21;100234.19;10260222;28;20055;-73
2021/11/03 17:41:25;;;;;;;31.58;20.30;;;;;;;8.08;88.61;100242.72;10263769;28;20072;-73
2021/11/03 17:46:21;;;;;;;36.08;20.77;;;;;;;8.07;88.13;100248.47;10265861;28;20045;-73
2021/11/03 17:51:20;;;;;;;32.80;20.02;;;;;;;8.06;88.78;100264.00;10252828;28;20051;-73
2021/11/03 17:56:20;;;;;;;28.52;18.27;;;;;;;8.06;88.84;100266.72;10260195;28;20123;-69
2021/11/03 18:01:19;;;;;;;30.77;18.30;;;;;;;8.09;88.49;100268.00;10249390;28;20418;-69
2021/11/03 18:06:16;;;;;;;28.20;17.50;;;;;;;8.08;88.78;100272.66;10250349;28;20102;-72
2021/11/03 18:11:16;;;;;;;31.13;18.15;;;;;;;8.08;89.17;100267.22;10265281;28;20131;-72
2021/11/03 18:16:13;;;;;;;31.65;17.02;;;;;;;8.08;89.42;100289.00;10255674;28;20075;-72
2021/11/03 18:21:10;;;;;;;26.25;16.40;;;;;;;8.09;88.88;100285.16;10259888;28;20072;-72
2021/11/03 18:26:18;;;;;;;30.33;17.67;;;;;;;8.09;89.40;100290.59;10263109;28;20146;-72
2021/11/03 18:31:22;;;;;;;29.63;16.50;;;;;;;8.10;89.19;100281.31;10253238;28;20099;-73
2021/11/03 18:36:19;;;;;;;24.95;16.65;;;;;;;8.11;89.58;100282.91;10256124;28;20071;-73
2021/11/03 18:41:30;;;;;;;27.38;18.00;;;;;;;8.11;89.48;100291.09;10253601;28;20461;-72
2021/11/03 18:46:29;;;;;;;27.40;17.83;;;;;;;8.12;89.42;100295.44;10255912;28;20414;-74
2021/11/03 18:51:54;;;;;;;24.73;16.58;;;;;;;8.06;89.50;100291.22;10251310;28;20041;-71
2021/11/03 18:56:50;;;;;;;30.10;16.38;;;;;;;8.09;89.52;100295.25;10249433;28;20057;-72
2021/11/03 19:01:47;;;;;;;28.77;16.65;;;;;;;8.09;90.03;100296.03;10242906;28;20042;-72
2021/11/03 19:06:50;;;;;;;23.08;15.52;;;;;;;8.10;90.17;100302.28;10259670;28;20480;-72
2021/11/03 19:11:47;;;;;;;26.98;14.95;;;;;;;8.09;89.70;100312.38;10248586;28;20072;-73
2021/11/03 19:16:56;;;;;;;23.67;15.23;;;;;;;8.11;89.88;100306.63;10246778;28;20068;-72
2021/11/03 19:21:55;;;;;;;23.85;15.98;;;;;;;8.11;89.69;100309.34;10249825;28;20163;-72
2021/11/03 19:26:51;;;;;;;23.45;15.70;;;;;;;8.13;90.09;100313.38;10254689;28;20041;-72
2021/11/03 19:31:48;;;;;;;23.08;15.75;;;;;;;8.16;90.24;100323.63;10248267;28;20510;-72
2021/11/03 19:36:45;;;;;;;25.73;15.45;;;;;;;8.09;90.40;100327.91;10266000;28;20045;-71
2021/11/03 19:41:42;;;;;;;25.33;16.50;;;;;;;8.01;91.25;100316.66;10250805;28;20046;-71
2021/11/03 19:46:39;;;;;;;24.30;16.30;;;;;;;8.08;91.32;100332.56;10263210;28;20106;-72
2021/11/03 19:51:39;;;;;;;27.42;17.77;;;;;;;8.10;91.49;100324.88;10251357;28;20048;-71
2021/11/03 19:56:36;;;;;;;25.35;17.73;;;;;;;8.10;91.96;100324.88;10246511;28;20118;-72
2021/11/03 20:01:32;;;;;;;27.23;17.05;;;;;;;8.12;92.00;100325.38;10243253;28;20048;-71
2021/11/03 20:06:29;;;;;;;24.10;16.13;;;;;;;8.10;92.73;100334.94;10254087;28;20498;-71
2021/11/03 20:11:26;;;;;;;25.95;16.65;;;;;;;8.09;93.09;100334.16;10249028;28;20041;-72
2021/11/03 20:16:50;;;;;;;27.77;17.23;;;;;;;8.10;93.11;100335.78;10260010;28;20140;-74
2021/11/03 20:21:50;;;;;;;29.48;17.45;;;;;;;8.08;93.35;100332.56;10244083;28;20526;-73
2021/11/03 20:26:47;;;;;;;26.13;16.20;;;;;;;8.04;93.19;100347.91;10252848;28;20073;-72
2021/11/03 20:31:50;;;;;;;26.08;15.75;;;;;;;8.03;93.43;100351.75;10251175;28;20045;-71
2021/11/03 20:36:47;;;;;;;25.15;18.30;;;;;;;8.05;93.69;100352.22;10252323;28;20072;-71
2021/11/03 20:42:11;;;;;;;26.42;17.58;;;;;;;8.04;93.63;100352.56;10248756;28;20503;-71
2021/11/03 20:47:10;;;;;;;23.97;16.33;;;;;;;8.03;94.00;100362.66;10260199;28;20086;-72
2021/11/03 20:52:07;;;;;;;28.90;18.98;;;;;;;8.05;94.23;100360.38;10244366;28;20537;-73
2021/11/03 20:57:04;;;;;;;22.35;15.68;;;;;;;8.05;94.31;100375.94;10256496;28;20044;-74
2021/11/03 21:02:00;;;;;;;30.27;18.17;;;;;;;8.03;93.87;100373.53;10240525;28;20048;-72
2021/11/03 21:06:57;;;;;;;30.63;18.05;;;;;;;8.00;94.35;100376.84;10253773;28;20564;-72
2021/11/03 21:11:53;;;;;;;28.33;18.38;;;;;;;7.97;95.20;100377.47;10242359;28;20048;-71
2021/11/03 21:16:50;;;;;;;26.80;17.90;;;;;;;7.99;95.48;100377.97;10246771;28;20595;-72
2021/11/03 21:21:47;;;;;;;35.05;19.33;;;;;;;8.00;95.52;100363.25;10235360;28;20091;-72
2021/11/03 21:26:43;;;;;;;33.83;19.92;;;;;;;7.99;95.63;100367.09;10244600;28;20137;-71
2021/11/03 21:31:39;;;;;;;31.27;19.30;;;;;;;7.96;96.24;100367.69;10236002;28;20037;-71
2021/11/03 21:36:36;;;;;;;35.05;21.95;;;;;;;7.97;97.07;100369.31;10233230;28;20767;-71
2021/11/03 21:41:33;;;;;;;33.53;20.70;;;;;;;7.95;97.13;100372.34;10243021;28;20165;-72
2021/11/03 21:46:29;;;;;;;34.38;21.13;;;;;;;7.96;97.26;100363.06;10257934;28;20077;-72
2021/11/03 21:51:26;;;;;;;32.08;20.38;;;;;;;7.94;97.03;100356.31;10248744;28;20104;-68
2021/11/03 21:56:22;;;;;;;41.30;22.55;;;;;;;7.97;97.58;100364.66;10250884;28;20132;-71
2021/11/03 22:01:19;;;;;;;36.08;21.75;;;;;;;7.96;98.09;100364.97;10246765;28;20487;-73
2021/11/03 22:06:15;;;;;;;35.78;23.38;;;;;;;7.92;97.73;100339.50;10268775;28;20709;-71
2021/11/03 22:11:12;;;;;;;36.97;23.45;;;;;;;7.92;98.00;100339.50;10254215;28;20697;-71
2021/11/03 22:16:08;;;;;;;33.70;22.23;;;;;;;7.92;98.52;100344.94;10258150;28;20099;-72
2021/11/03 22:21:06;;;;;;;36.95;22.98;;;;;;;7.90;98.23;100352.59;10250666;28;20111;-72
2021/11/03 22:26:03;;;;;;;40.05;23.75;;;;;;;7.88;98.21;100349.38;10250323;28;20048;-71
2021/11/03 22:30:59;;;;;;;43.88;25.40;;;;;;;7.88;98.60;100352.09;10250744;28;20094;-71
2021/11/03 22:35:56;;;;;;;37.58;23.90;;;;;;;7.91;98.77;100354.19;10259977;28;20045;-73
2021/11/03 22:40:52;;;;;;;41.17;24.25;;;;;;;7.91;98.55;100351.47;10265279;28;20090;-72
2021/11/03 22:45:49;;;;;;;38.10;24.40;;;;;;;7.91;99.13;100356.94;10263425;28;20103;-72